Time;durP1;ratioP1;P1;durP2;ratioP2;P2;SDS_P1;SDS_P2;PMS_P1;PMS_P2;Temp;Humidity;BMP_temperature;BMP_pressure;BME280_temperature;BME280_humidity;BME280_pressure;Samples;Min_cycle;Max_cycle;Signal;HPM_P1;HPM_P2
2024/01/18 00:02:07;;;;;;;;;;;11.50;60.70;;;;;;6245747;23;19904;-71
2024/01/18 00:04:33;;;;;;;;;;;11.50;60.80;;;;;;6246026;23;19904;-71
2024/01/18 00:06:58;;;;;;;;;;;11.60;60.90;;;;;;6245605;23;19904;-71
2024/01/18 00:09:24;;;;;;;;;;;11.60;60.90;;;;;;6245608;23;19903;-71
2024/01/18 00:11:50;;;;;;;;;;;11.50;60.40;;;;;;6246494;23;19986;-71
2024/01/18 00:14:15;;;;;;;;;;;11.60;61.00;;;;;;6245923;23;20337;-71
2024/01/18 00:16:41;;;;;;;;;;;11.50;60.80;;;;;;6245413;23;20002;-71
2024/01/18 00:19:07;;;;;;;;;;;11.60;60.30;;;;;;6245521;23;20246;-71
2024/01/18 00:21:32;;;;;;;;;;;11.50;60.70;;;;;;6245607;23;20362;-71
2024/01/18 00:23:58;;;;;;;;;;;11.50;60.50;;;;;;6245488;23;20268;-71
2024/01/18 00:26:23;;;;;;;;;;;11.80;60.70;;;;;;6245449;23;20001;-71
2024/01/18 00:28:48;;;;;;;;;;;11.60;60.60;;;;;;6245403;23;19979;-71
2024/01/18 00:31:14;;;;;;;;;;;11.60;60.70;;;;;;6245316;23;19958;-71
2024/01/18 00:33:39;;;;;;;;;;;11.50;60.60;;;;;;6245387;23;19904;-71
2024/01/18 00:36:05;;;;;;;;;;;11.60;60.80;;;;;;6245241;23;19934;-71
2024/01/18 00:38:31;;;;;;;;;;;11.60;60.30;;;;;;6244983;22;19923;-71
2024/01/18 00:40:56;;;;;;;;;;;11.60;60.40;;;;;;6245967;23;19903;-71
2024/01/18 00:43:22;;;;;;;;;;;11.50;60.50;;;;;;6245326;23;19907;-71
2024/01/18 00:45:47;;;;;;;;;;;11.50;60.20;;;;;;6245324;23;19904;-71
2024/01/18 00:48:13;;;;;;;;;;;11.50;60.40;;;;;;6245310;23;19911;-71
2024/01/18 00:50:39;;;;;;;;;;;11.50;60.40;;;;;;6245373;23;19915;-71
2024/01/18 00:53:04;;;;;;;;;;;11.60;60.30;;;;;;6245250;23;19911;-70
2024/01/18 00:55:31;;;;;;;;;;;11.50;59.90;;;;;;6245085;23;19989;-71
2024/01/18 00:57:56;;;;;;;;;;;11.50;60.60;;;;;;6245128;23;19904;-71
2024/01/18 01:00:22;;;;;;;;;;;11.80;60.50;;;;;;6245809;23;19994;-72
2024/01/18 01:02:47;;;;;;;;;;;11.80;60.50;;;;;;6245436;23;19927;-71
2024/01/18 01:05:13;;;;;;;;;;;11.90;60.50;;;;;;6245133;23;19949;-71
2024/01/18 01:07:38;;;;;;;;;;;11.50;60.30;;;;;;6245712;23;20187;-71
2024/01/18 01:10:04;;;;;;;;;;;11.50;60.30;;;;;;6245136;23;19903;-71
2024/01/18 01:12:29;;;;;;;;;;;11.50;60.20;;;;;;6245081;23;20081;-71
2024/01/18 01:14:55;;;;;;;;;;;11.50;60.40;;;;;;6245283;23;19918;-71
2024/01/18 01:17:21;;;;;;;;;;;11.50;60.10;;;;;;6245707;23;20184;-71
2024/01/18 01:19:47;;;;;;;;;;;11.50;59.40;;;;;;6245692;23;19938;-71
2024/01/18 01:22:12;;;;;;;;;;;11.50;59.90;;;;;;6245310;23;19918;-71
2024/01/18 01:24:38;;;;;;;;;;;11.50;60.30;;;;;;6245052;23;19911;-71
2024/01/18 01:27:05;;;;;;;;;;;11.50;60.20;;;;;;6244987;23;19904;-71
2024/01/18 01:44:46;;;;;;;;;;;11.60;56.70;;;;;;6274081;22;20345;-71
2024/01/18 01:47:12;;;;;;;;;;;11.60;60.50;;;;;;6244902;23;19911;-71
2024/01/18 01:49:37;;;;;;;;;;;11.50;60.90;;;;;;6243482;23;19931;-71
2024/01/18 01:52:03;;;;;;;;;;;11.50;60.90;;;;;;6243308;23;20283;-71
2024/01/18 01:54:29;;;;;;;;;;;11.50;60.00;;;;;;6244582;23;19904;-71
2024/01/18 01:56:56;;;;;;;;;;;11.50;60.90;;;;;;6244800;23;19970;-71
2024/01/18 01:59:22;;;;;;;;;;;11.50;60.20;;;;;;6244803;23;20327;-71
2024/01/18 02:01:48;;;;;;;;;;;11.50;60.80;;;;;;6244787;23;19903;-71
2024/01/18 02:04:13;;;;;;;;;;;11.60;61.20;;;;;;6245428;23;19904;-71
2024/01/18 02:06:40;;;;;;;;;;;11.50;60.50;;;;;;6245449;23;19946;-71
2024/01/18 02:09:06;;;;;;;;;;;11.50;60.90;;;;;;6255048;23;19982;-71
2024/01/18 02:11:31;;;;;;;;;;;11.50;60.80;;;;;;6245276;23;19950;-71
2024/01/18 02:13:57;;;;;;;;;;;11.50;60.50;;;;;;6244919;23;19903;-71
2024/01/18 02:16:23;;;;;;;;;;;11.40;60.60;;;;;;6244683;23;20053;-71
2024/01/18 02:18:48;;;;;;;;;;;11.40;60.70;;;;;;6244723;23;19904;-71
2024/01/18 02:21:14;;;;;;;;;;;11.40;60.60;;;;;;6244761;23;19982;-71
2024/01/18 02:23:41;;;;;;;;;;;11.50;60.10;;;;;;6244666;23;19969;-71
2024/01/18 02:26:06;;;;;;;;;;;11.50;60.70;;;;;;6244612;23;19904;-71
2024/01/18 02:28:32;;;;;;;;;;;11.50;60.60;;;;;;6243094;23;19907;-71
2024/01/18 02:30:57;;;;;;;;;;;11.50;60.70;;;;;;6244663;23;19904;-71
2024/01/18 02:33:23;;;;;;;;;;;11.40;60.50;;;;;;6245155;23;20303;-69
2024/01/18 02:35:49;;;;;;;;;;;11.40;60.60;;;;;;6244477;23;19990;-69
2024/01/18 02:38:15;;;;;;;;;;;11.40;60.20;;;;;;6244501;23;19911;-69
2024/01/18 02:40:40;;;;;;;;;;;11.40;60.50;;;;;;6245148;23;20246;-69
2024/01/18 02:43:06;;;;;;;;;;;11.30;60.60;;;;;;6244621;23;19918;-69
2024/01/18 02:45:32;;;;;;;;;;;11.30;60.30;;;;;;6244924;22;19922;-69
2024/01/18 02:47:57;;;;;;;;;;;11.50;60.60;;;;;;6245057;23;19904;-69
2024/01/18 02:50:23;;;;;;;;;;;11.40;60.80;;;;;;6246319;23;19910;-69
2024/01/18 02:52:48;;;;;;;;;;;11.40;60.60;;;;;;6246317;23;19911;-69
2024/01/18 02:55:14;;;;;;;;;;;11.40;60.60;;;;;;6246270;23;19958;-69
2024/01/18 02:57:41;;;;;;;;;;;11.40;60.50;;;;;;6246572;23;20246;-69
2024/01/18 03:00:07;;;;;;;;;;;11.40;60.50;;;;;;6246375;23;19933;-69
2024/01/18 03:02:32;;;;;;;;;;;11.40;59.50;;;;;;6246959;23;19908;-69
2024/01/18 03:04:57;;;;;;;;;;;11.40;60.50;;;;;;6246357;23;19991;-69
2024/01/18 03:07:23;;;;;;;;;;;11.40;60.50;;;;;;6246243;23;20319;-69
2024/01/18 03:09:48;;;;;;;;;;;11.40;60.50;;;;;;6246276;23;19927;-69
2024/01/18 03:12:14;;;;;;;;;;;11.40;60.50;;;;;;6246161;23;19934;-69
2024/01/18 03:14:39;;;;;;;;;;;11.40;60.80;;;;;;6246198;23;19990;-69
2024/01/18 03:17:05;;;;;;;;;;;11.40;60.30;;;;;;6246489;23;19904;-69
2024/01/18 03:19:30;;;;;;;;;;;11.40;60.30;;;;;;6244565;23;19903;-69
2024/01/18 03:21:56;;;;;;;;;;;11.40;60.20;;;;;;6246126;23;19950;-69
2024/01/18 03:24:22;;;;;;;;;;;11.40;60.10;;;;;;6246077;23;19997;-69
2024/01/18 03:26:47;;;;;;;;;;;11.30;60.20;;;;;;6246162;23;19904;-69
2024/01/18 03:29:13;;;;;;;;;;;11.30;60.60;;;;;;6246021;23;19903;-69
2024/01/18 03:31:38;;;;;;;;;;;11.40;60.20;;;;;;6246483;23;19908;-69
2024/01/18 03:34:04;;;;;;;;;;;11.30;60.10;;;;;;6245997;23;19904;-69
2024/01/18 03:36:29;;;;;;;;;;;11.40;60.30;;;;;;6245880;23;20314;-68
2024/01/18 03:38:55;;;;;;;;;;;11.30;59.90;;;;;;6245764;23;19978;-69
2024/01/18 03:41:20;;;;;;;;;;;11.40;60.20;;;;;;6246021;23;20231;-69
2024/01/18 03:43:46;;;;;;;;;;;11.30;60.20;;;;;;6245971;23;19904;-69
2024/01/18 03:46:14;;;;;;;;;;;11.30;60.50;;;;;;6248723;22;19915;-69
2024/01/18 03:48:40;;;;;;;;;;;11.30;55.80;;;;;;6245808;23;19908;-69
2024/01/18 03:51:05;;;;;;;;;;;11.20;60.10;;;;;;6246558;22;19946;-69
2024/01/18 03:53:31;;;;;;;;;;;11.30;60.50;;;;;;6246425;23;20208;-69
2024/01/18 03:55:56;;;;;;;;;;;11.40;60.30;;;;;;6244066;23;19911;-69
2024/01/18 03:58:22;;;;;;;;;;;11.30;60.00;;;;;;6245598;23;19919;-69
2024/01/18 04:00:47;;;;;;;;;;;11.40;60.00;;;;;;6246361;23;19904;-69
2024/01/18 04:03:13;;;;;;;;;;;11.30;59.50;;;;;;6245730;23;19935;-69
2024/01/18 04:05:38;;;;;;;;;;;11.20;59.90;;;;;;6246295;23;19954;-69
2024/01/18 04:08:04;;;;;;;;;;;11.30;60.50;;;;;;6244035;23;20207;-69
2024/01/18 04:10:30;;;;;;;;;;;11.20;60.20;;;;;;6245720;23;19910;-69
2024/01/18 04:12:56;;;;;;;;;;;11.30;60.20;;;;;;6245714;23;19910;-69
2024/01/18 04:15:21;;;;;;;;;;;11.10;60.00;;;;;;6245492;23;20012;-69
2024/01/18 04:17:47;;;;;;;;;;;11.20;60.40;;;;;;6245554;23;20290;-69
2024/01/18 04:20:17;;;;;;;;;;;11.20;60.40;;;;;;6243940;23;19962;-69
2024/01/18 04:22:43;;;;;;;;;;;11.20;59.90;;;;;;6245899;23;20041;-69
2024/01/18 04:25:09;;;;;;;;;;;11.20;60.30;;;;;;6245604;23;19987;-69
2024/01/18 04:27:35;;;;;;;;;;;11.20;60.50;;;;;;6246167;23;20285;-69
2024/01/18 04:30:00;;;;;;;;;;;11.20;60.20;;;;;;6245571;23;20002;-69
2024/01/18 04:32:26;;;;;;;;;;;11.10;60.10;;;;;;6245453;23;19904;-69
2024/01/18 04:34:52;;;;;;;;;;;11.20;60.10;;;;;;6245975;23;19911;-69
2024/01/18 04:37:17;;;;;;;;;;;11.20;59.70;;;;;;6245387;23;19950;-69
2024/01/18 04:39:43;;;;;;;;;;;11.20;59.90;;;;;;6245311;23;19907;-69
2024/01/18 04:42:08;;;;;;;;;;;11.20;60.40;;;;;;6245366;23;19910;-69
2024/01/18 04:44:34;;;;;;;;;;;11.20;60.00;;;;;;6245168;22;19946;-69
2024/01/18 04:47:00;;;;;;;;;;;11.10;60.40;;;;;;6245447;23;19904;-69
2024/01/18 04:49:25;;;;;;;;;;;11.10;60.50;;;;;;6245274;23;19903;-69
2024/01/18 04:51:51;;;;;;;;;;;11.10;60.20;;;;;;6245271;23;19904;-69
2024/01/18 04:54:16;;;;;;;;;;;11.10;60.60;;;;;;6245234;23;20220;-69
2024/01/18 04:56:41;;;;;;;;;;;11.20;60.60;;;;;;6245666;23;19918;-69
2024/01/18 04:59:08;;;;;;;;;;;11.10;60.70;;;;;;6245268;23;20342;-69
2024/01/18 05:01:38;;;;;;;;;;;11.10;60.30;;;;;;6245188;23;19904;-69
2024/01/18 05:04:04;;;;;;;;;;;11.10;60.40;;;;;;6245214;23;19911;-69
2024/01/18 05:06:29;;;;;;;;;;;11.10;60.50;;;;;;6245178;23;19904;-69
2024/01/18 05:08:55;;;;;;;;;;;11.10;60.50;;;;;;6245179;23;19903;-69
2024/01/18 05:11:21;;;;;;;;;;;11.10;60.10;;;;;;6244708;23;19949;-69
2024/01/18 05:13:46;;;;;;;;;;;11.20;60.80;;;;;;6244998;23;20295;-69
2024/01/18 05:16:12;;;;;;;;;;;11.30;60.90;;;;;;6243288;23;19915;-69
2024/01/18 05:18:38;;;;;;;;;;;11.10;61.00;;;;;;6245122;23;19908;-69
2024/01/18 05:21:03;;;;;;;;;;;11.20;61.10;;;;;;6245051;23;19935;-69
2024/01/18 05:23:29;;;;;;;;;;;11.10;60.40;;;;;;6244969;23;20353;-69
2024/01/18 05:25:55;;;;;;;;;;;11.20;61.30;;;;;;6245521;23;19904;-69
2024/01/18 05:28:20;;;;;;;;;;;11.20;61.40;;;;;;6244985;23;19911;-69
2024/01/18 05:30:46;;;;;;;;;;;11.20;61.30;;;;;;6244952;23;19911;-69
2024/01/18 05:33:11;;;;;;;;;;;11.20;61.50;;;;;;6244902;23;19904;-69
2024/01/18 05:35:37;;;;;;;;;;;11.20;61.30;;;;;;6245609;23;20319;-69
2024/01/18 05:38:03;;;;;;;;;;;11.20;60.90;;;;;;6244741;23;20243;-69
2024/01/18 05:40:29;;;;;;;;;;;10.90;61.10;;;;;;6244837;23;19932;-69
2024/01/18 05:42:54;;;;;;;;;;;11.20;61.70;;;;;;6244798;23;19927;-69
2024/01/18 05:45:20;;;;;;;;;;;11.20;61.00;;;;;;6244695;22;19916;-69
2024/01/18 05:47:46;;;;;;;;;;;11.20;61.30;;;;;;6244775;23;20319;-69
2024/01/18 05:50:12;;;;;;;;;;;11.20;61.60;;;;;;6244850;23;19957;-69
2024/01/18 05:52:37;;;;;;;;;;;11.40;61.40;;;;;;6245398;23;19907;-71
2024/01/18 05:55:04;;;;;;;;;;;11.20;61.30;;;;;;6244663;23;19963;-71
2024/01/18 05:57:29;;;;;;;;;;;11.20;60.50;;;;;;6244810;23;19907;-72
2024/01/18 05:59:55;;;;;;;;;;;11.30;61.50;;;;;;6244826;23;20319;-72
2024/01/18 06:02:21;;;;;;;;;;;11.20;61.30;;;;;;6244804;23;19904;-71
2024/01/18 06:04:47;;;;;;;;;;;11.20;61.60;;;;;;6245422;23;20288;-71
2024/01/18 06:07:12;;;;;;;;;;;11.20;61.40;;;;;;6244831;23;19908;-71
2024/01/18 06:09:38;;;;;;;;;;;11.20;61.50;;;;;;6244690;23;19914;-71
2024/01/18 06:12:03;;;;;;;;;;;11.20;61.40;;;;;;6244739;23;20441;-71
2024/01/18 06:14:29;;;;;;;;;;;11.20;60.50;;;;;;6243285;23;19908;-72
2024/01/18 06:16:55;;;;;;;;;;;11.30;61.60;;;;;;6244246;23;20014;-72
2024/01/18 06:19:21;;;;;;;;;;;11.20;61.00;;;;;;6245314;23;20242;-71
2024/01/18 06:21:46;;;;;;;;;;;11.20;61.10;;;;;;6245095;23;19989;-71
2024/01/18 06:24:13;;;;;;;;;;;11.20;61.10;;;;;;6246752;23;19907;-72
2024/01/18 06:26:38;;;;;;;;;;;11.20;61.10;;;;;;6246649;23;20323;-72
2024/01/18 06:29:04;;;;;;;;;;;11.70;61.40;;;;;;6246595;23;19918;-72
2024/01/18 06:31:30;;;;;;;;;;;11.20;61.20;;;;;;6246530;23;19904;-74
2024/01/18 06:33:58;;;;;;;;;;;11.40;61.20;;;;;;6244933;23;20017;-72
2024/01/18 06:36:24;;;;;;;;;;;11.20;60.90;;;;;;6246461;23;19919;-72
2024/01/18 06:38:49;;;;;;;;;;;11.20;60.80;;;;;;6246339;23;19903;-73
2024/01/18 06:41:15;;;;;;;;;;;11.10;61.20;;;;;;6247116;23;19903;-71
2024/01/18 06:43:41;;;;;;;;;;;11.10;61.10;;;;;;6246499;23;19903;-72
2024/01/18 06:46:18;;;;;;;;;;;11.20;61.20;;;;;;6246246;22;20341;-71
2024/01/18 06:48:50;;;;;;;;;;;11.00;56.80;;;;;;6246440;23;20278;-71
2024/01/18 06:51:16;;;;;;;;;;;11.20;61.30;;;;;;6257046;23;19908;-71
2024/01/18 06:53:42;;;;;;;;;;;11.10;61.20;;;;;;6256681;23;20332;-72
2024/01/18 06:56:12;;;;;;;;;;;11.00;61.00;;;;;;6256472;23;20243;-71
2024/01/18 06:58:37;;;;;;;;;;;11.20;57.00;;;;;;6246617;23;19950;-72
2024/01/18 07:01:03;;;;;;;;;;;11.00;61.00;;;;;;6246255;23;19912;-71
2024/01/18 07:03:30;;;;;;;;;;;12.00;61.50;;;;;;6246274;23;19957;-71
2024/01/18 07:05:56;;;;;;;;;;;11.10;61.10;;;;;;6246256;23;19904;-71
2024/01/18 07:08:22;;;;;;;;;;;11.10;61.10;;;;;;6246774;23;20014;-71
2024/01/18 07:10:48;;;;;;;;;;;11.10;61.20;;;;;;6246301;23;19918;-72
2024/01/18 07:13:14;;;;;;;;;;;11.00;61.10;;;;;;6246179;23;19903;-71
2024/01/18 07:15:40;;;;;;;;;;;11.10;61.30;;;;;;6246079;23;19994;-71
2024/01/18 07:18:05;;;;;;;;;;;11.40;61.40;;;;;;6246052;23;19904;-71
2024/01/18 07:20:30;;;;;;;;;;;11.20;60.70;;;;;;6246318;23;19908;-71
2024/01/18 07:22:56;;;;;;;;;;;11.10;61.20;;;;;;6246810;23;19956;-71
2024/01/18 07:25:21;;;;;;;;;;;11.20;61.00;;;;;;6246097;23;19904;-71
2024/01/18 07:27:47;;;;;;;;;;;11.30;61.20;;;;;;6246135;23;19904;-71
2024/01/18 07:30:14;;;;;;;;;;;11.00;61.10;;;;;;6246015;23;19982;-71
2024/01/18 07:32:40;;;;;;;;;;;11.10;60.50;;;;;;6245949;23;19950;-72
2024/01/18 07:35:05;;;;;;;;;;;11.20;61.30;;;;;;6245557;23;19911;-73
2024/01/18 07:37:31;;;;;;;;;;;11.10;61.10;;;;;;6246666;23;20334;-71
2024/01/18 07:39:56;;;;;;;;;;;11.50;61.00;;;;;;6245921;23;19911;-72
2024/01/18 07:42:22;;;;;;;;;;;11.20;61.50;;;;;;6245942;23;19983;-72
2024/01/18 07:44:47;;;;;;;;;;;11.40;61.40;;;;;;6245835;22;19911;-71
2024/01/18 07:47:13;;;;;;;;;;;11.00;61.00;;;;;;6254831;23;19904;-73
2024/01/18 07:49:42;;;;;;;;;;;11.30;61.30;;;;;;6244331;23;20219;-72
2024/01/18 07:52:08;;;;;;;;;;;11.10;61.10;;;;;;6245920;23;19975;-72
2024/01/18 07:54:34;;;;;;;;;;;11.10;61.40;;;;;;6245606;23;20324;-71
2024/01/18 07:56:59;;;;;;;;;;;11.10;61.00;;;;;;6246168;23;19908;-72
2024/01/18 07:59:25;;;;;;;;;;;11.10;61.00;;;;;;6246211;23;20334;-69
2024/01/18 08:01:50;;;;;;;;;;;11.20;60.90;;;;;;6246264;23;19903;-71
2024/01/18 08:04:16;;;;;;;;;;;11.20;61.10;;;;;;6245522;23;19908;-71
2024/01/18 08:06:42;;;;;;;;;;;11.20;60.60;;;;;;6245986;23;19903;-70
2024/01/18 08:09:11;;;;;;;;;;;11.20;60.90;;;;;;6245475;23;19903;-72
2024/01/18 08:11:37;;;;;;;;;;;11.10;60.90;;;;;;6245456;23;19927;-71
2024/01/18 08:14:02;;;;;;;;;;;11.50;61.60;;;;;;6245334;23;20334;-71
2024/01/18 08:16:28;;;;;;;;;;;11.20;60.90;;;;;;6245140;23;19990;-71
2024/01/18 08:18:53;;;;;;;;;;;11.20;61.30;;;;;;6245473;23;19911;-71
2024/01/18 08:21:19;;;;;;;;;;;11.20;61.40;;;;;;6245922;23;19962;-71
2024/01/18 08:23:45;;;;;;;;;;;11.20;61.50;;;;;;6245266;23;19904;-71
2024/01/18 08:26:10;;;;;;;;;;;11.10;61.60;;;;;;6243637;23;19953;-71
2024/01/18 08:28:36;;;;;;;;;;;11.40;61.90;;;;;;6245223;23;19903;-71
2024/01/18 08:31:01;;;;;;;;;;;11.20;61.90;;;;;;6245304;23;20571;-71
2024/01/18 08:33:27;;;;;;;;;;;11.20;60.90;;;;;;6245793;23;20242;-71
2024/01/18 08:35:52;;;;;;;;;;;11.20;61.60;;;;;;6245116;23;19942;-71
2024/01/18 08:38:20;;;;;;;;;;;11.20;60.90;;;;;;6245101;23;19949;-71
2024/01/18 08:40:46;;;;;;;;;;;11.20;61.20;;;;;;6245216;23;19904;-71
2024/01/18 08:43:12;;;;;;;;;;;11.20;61.60;;;;;;6244924;23;19903;-71
2024/01/18 08:45:40;;;;;;;;;;;11.30;61.40;;;;;;6244497;22;19915;-70
2024/01/18 08:48:05;;;;;;;;;;;11.20;61.20;;;;;;6245011;23;20000;-79
2024/01/18 08:50:31;;;;;;;;;;;11.20;60.80;;;;;;6245149;23;19907;-69
2024/01/18 08:52:56;;;;;;;;;;;11.20;61.40;;;;;;6245300;23;19994;-69
2024/01/18 08:55:23;;;;;;;;;;;11.50;61.40;;;;;;6245184;23;19969;-69
2024/01/18 08:57:49;;;;;;;;;;;11.20;61.10;;;;;;6245230;23;19937;-70
2024/01/18 09:00:17;;;;;;;;;;;11.20;61.10;;;;;;6243981;23;19994;-71
2024/01/18 09:02:46;;;;;;;;;;;11.20;60.10;;;;;;6243115;23;19907;-70
2024/01/18 09:05:11;;;;;;;;;;;11.30;56.90;;;;;;6245373;23;19931;-72
2024/01/18 09:07:37;;;;;;;;;;;11.20;61.20;;;;;;6245045;23;19911;-72
2024/01/18 09:10:03;;;;;;;;;;;11.30;61.10;;;;;;6245507;23;19914;-72
2024/01/18 09:12:29;;;;;;;;;;;11.30;61.20;;;;;;6245763;22;19939;-74
2024/01/18 09:14:54;;;;;;;;;;;11.30;60.60;;;;;;6244715;23;19910;-72
2024/01/18 09:17:20;;;;;;;;;;;11.30;60.70;;;;;;6245138;23;19941;-72
2024/01/18 09:19:46;;;;;;;;;;;11.30;61.00;;;;;;6245346;23;19983;-72
2024/01/18 09:22:11;;;;;;;;;;;11.40;61.20;;;;;;6245408;23;19903;-72
2024/01/18 09:24:37;;;;;;;;;;;11.40;61.10;;;;;;6245764;23;19931;-72
2024/01/18 09:27:03;;;;;;;;;;;11.30;60.80;;;;;;6245127;23;20277;-72
2024/01/18 09:29:28;;;;;;;;;;;11.40;60.50;;;;;;6245129;23;20239;-72
2024/01/18 09:31:56;;;;;;;;;;;11.30;60.90;;;;;;6245741;23;19911;-72
2024/01/18 09:34:21;;;;;;;;;;;11.40;60.80;;;;;;6245037;23;19910;-72
2024/01/18 09:36:47;;;;;;;;;;;11.40;61.00;;;;;;6255027;23;19912;-72
2024/01/18 09:42:03;;;;;;;;;;;11.60;57.70;;;;;;6244802;23;19958;-72
2024/01/18 09:44:30;;;;;;;;;;;11.50;60.30;;;;;;6244528;22;19957;-72
2024/01/18 09:46:59;;;;;;;;;;;11.40;60.90;;;;;;6245018;23;19912;-72
2024/01/18 09:49:25;;;;;;;;;;;11.50;60.10;;;;;;6245580;23;20285;-72
2024/01/18 09:51:51;;;;;;;;;;;11.40;59.70;;;;;;6245005;23;19904;-72
2024/01/18 09:54:17;;;;;;;;;;;11.50;59.70;;;;;;6245211;23;19910;-74
2024/01/18 09:56:43;;;;;;;;;;;11.60;60.20;;;;;;6246070;23;19915;-73
2024/01/18 09:59:17;;;;;;;;;;;11.60;59.20;;;;;;6247347;23;19903;-72
2024/01/18 10:01:42;;;;;;;;;;;11.60;55.80;;;;;;6247983;23;19907;-73
2024/01/18 10:04:10;;;;;;;;;;;11.80;59.70;;;;;;6247206;23;19919;-69
2024/01/18 10:06:38;;;;;;;;;;;11.60;60.20;;;;;;6247103;23;19904;-73
2024/01/18 10:09:07;;;;;;;;;;;11.60;60.00;;;;;;6247257;23;19903;-75
2024/01/18 10:11:34;;;;;;;;;;;11.60;60.60;;;;;;6257645;23;20220;-75
2024/01/18 10:14:02;;;;;;;;;;;11.60;60.40;;;;;;6257332;23;19911;-74
2024/01/18 10:16:32;;;;;;;;;;;11.60;60.40;;;;;;6257167;23;19964;-73
2024/01/18 10:19:14;;;;;;;;;;;11.60;56.30;;;;;;6247574;23;19927;-75
2024/01/18 10:21:41;;;;;;;;;;;11.50;60.70;;;;;;6257225;23;19911;-75
2024/01/18 10:24:13;;;;;;;;;;;11.50;60.60;;;;;;6247425;23;19904;-84
2024/01/18 10:26:40;;;;;;;;;;;11.60;56.50;;;;;;6247590;23;19987;-78
2024/01/18 10:29:08;;;;;;;;;;;11.60;61.00;;;;;;6247195;23;19910;-78
2024/01/18 10:31:38;;;;;;;;;;;11.60;60.90;;;;;;6246987;23;19903;-77
2024/01/18 10:34:04;;;;;;;;;;;11.50;60.60;;;;;;6247267;23;19903;-77
2024/01/18 10:36:29;;;;;;;;;;;11.60;60.70;;;;;;6246868;23;19923;-76
2024/01/18 10:38:55;;;;;;;;;;;11.60;61.10;;;;;;6247205;23;19949;-76
2024/01/18 10:41:21;;;;;;;;;;;11.50;61.20;;;;;;6246793;23;19911;-75
2024/01/18 10:43:48;;;;;;;;;;;11.50;61.40;;;;;;6247050;23;20319;-73
2024/01/18 10:46:14;;;;;;;;;;;11.60;61.50;;;;;;6246944;22;20276;-77
2024/01/18 10:48:42;;;;;;;;;;;11.60;61.40;;;;;;6246694;23;19942;-77
2024/01/18 10:51:08;;;;;;;;;;;11.60;61.60;;;;;;6246579;23;20219;-76
2024/01/18 10:53:34;;;;;;;;;;;11.70;61.60;;;;;;6246607;23;19910;-76
2024/01/18 10:55:59;;;;;;;;;;;11.80;61.60;;;;;;6247020;23;19919;-74
2024/01/18 10:58:25;;;;;;;;;;;11.60;62.00;;;;;;6246471;23;19903;-76
2024/01/18 11:00:51;;;;;;;;;;;11.80;61.30;;;;;;6247216;23;20319;-75
2024/01/18 11:03:17;;;;;;;;;;;11.80;61.40;;;;;;6246377;23;19957;-79
2024/01/18 11:05:46;;;;;;;;;;;11.80;60.70;;;;;;6246456;23;19911;-77
2024/01/18 11:08:15;;;;;;;;;;;12.00;57.00;;;;;;6246606;23;19931;-75
2024/01/18 11:10:42;;;;;;;;;;;12.00;56.70;;;;;;6246672;23;19904;-73
2024/01/18 11:13:09;;;;;;;;;;;12.10;60.10;;;;;;6246924;23;19904;-72
2024/01/18 11:15:36;;;;;;;;;;;12.10;60.40;;;;;;6246881;22;19947;-75
2024/01/18 11:18:10;;;;;;;;;;;12.20;60.40;;;;;;6246803;23;19914;-75
2024/01/18 11:20:55;;;;;;;;;;;12.30;56.20;;;;;;6246514;23;19904;-74
2024/01/18 11:23:22;;;;;;;;;;;12.30;56.20;;;;;;6246930;23;19903;-72
2024/01/18 11:25:48;;;;;;;;;;;12.40;60.10;;;;;;6246872;23;19904;-72
2024/01/18 11:28:24;;;;;;;;;;;12.50;60.00;;;;;;6246782;23;19934;-72
2024/01/18 11:30:50;;;;;;;;;;;12.60;60.60;;;;;;6256831;23;20342;-72
2024/01/18 11:33:16;;;;;;;;;;;12.60;60.30;;;;;;6245377;23;19904;-73
2024/01/18 11:35:42;;;;;;;;;;;12.70;60.50;;;;;;6246667;23;19934;-74
2024/01/18 11:38:19;;;;;;;;;;;12.80;59.90;;;;;;6246103;23;19950;-76
2024/01/18 11:40:46;;;;;;;;;;;12.80;56.10;;;;;;6244614;23;19982;-75
2024/01/18 11:43:12;;;;;;;;;;;13.00;60.10;;;;;;6246810;23;19903;-73
2024/01/18 11:45:38;;;;;;;;;;;13.10;60.20;;;;;;6246127;22;19958;-74
2024/01/18 11:48:04;;;;;;;;;;;13.10;60.10;;;;;;6246283;23;19982;-73
2024/01/18 11:50:30;;;;;;;;;;;13.30;59.70;;;;;;6246598;23;19904;-74
2024/01/18 11:52:56;;;;;;;;;;;13.20;59.80;;;;;;6246894;22;20302;-73
2024/01/18 11:55:23;;;;;;;;;;;13.30;59.80;;;;;;6246388;23;19911;-74
2024/01/18 11:57:51;;;;;;;;;;;13.40;59.80;;;;;;6246517;23;19978;-73
2024/01/18 12:00:19;;;;;;;;;;;13.50;59.80;;;;;;6246320;23;20012;-72
2024/01/18 12:02:45;;;;;;;;;;;13.60;59.20;;;;;;6246368;23;19903;-72
2024/01/18 12:05:11;;;;;;;;;;;13.70;59.20;;;;;;6246353;22;19904;-72
2024/01/18 12:07:38;;;;;;;;;;;13.80;59.50;;;;;;6246345;23;19903;-72
2024/01/18 12:10:06;;;;;;;;;;;13.90;59.90;;;;;;6246591;23;19946;-72
2024/01/18 12:12:32;;;;;;;;;;;13.90;58.50;;;;;;6246575;23;19911;-73
2024/01/18 12:14:59;;;;;;;;;;;14.00;58.80;;;;;;6244925;23;19910;-73
2024/01/18 12:17:25;;;;;;;;;;;14.00;59.20;;;;;;6244545;23;19931;-72
2024/01/18 12:19:51;;;;;;;;;;;13.90;59.40;;;;;;6244464;23;19903;-73
2024/01/18 12:22:17;;;;;;;;;;;13.80;59.60;;;;;;6244734;23;19910;-72
2024/01/18 12:24:43;;;;;;;;;;;13.70;60.00;;;;;;6245047;23;19907;-73
2024/01/18 12:27:09;;;;;;;;;;;13.70;60.40;;;;;;6245645;23;19982;-72
2024/01/18 12:29:36;;;;;;;;;;;13.60;60.50;;;;;;6245788;23;19961;-73
2024/01/18 12:32:02;;;;;;;;;;;13.40;60.90;;;;;;6244791;23;19904;-72
2024/01/18 12:34:29;;;;;;;;;;;13.50;61.50;;;;;;6246254;23;19903;-73
2024/01/18 12:36:56;;;;;;;;;;;13.50;61.90;;;;;;6245764;23;19957;-73
2024/01/18 12:39:22;;;;;;;;;;;13.50;61.80;;;;;;6246310;23;20242;-73
2024/01/18 12:41:52;;;;;;;;;;;13.50;62.20;;;;;;6246162;23;19903;-73
2024/01/18 12:44:18;;;;;;;;;;;13.40;58.30;;;;;;6245829;23;19903;-72
2024/01/18 12:46:43;;;;;;;;;;;13.30;62.50;;;;;;6245392;22;19921;-72
2024/01/18 12:49:11;;;;;;;;;;;13.30;63.00;;;;;;6245536;23;19982;-72
2024/01/18 12:51:38;;;;;;;;;;;13.30;62.90;;;;;;6245485;23;19973;-72
2024/01/18 12:54:04;;;;;;;;;;;13.50;62.60;;;;;;6245433;23;19910;-72
2024/01/18 12:56:29;;;;;;;;;;;13.50;63.50;;;;;;6245377;23;19911;-73
2024/01/18 12:58:55;;;;;;;;;;;13.70;62.20;;;;;;6245461;23;20323;-72
2024/01/18 13:01:38;;;;;;;;;;;13.70;62.50;;;;;;6245422;23;19903;-72
2024/01/18 13:04:13;;;;;;;;;;;13.80;58.00;;;;;;6255850;23;20270;-68
2024/01/18 13:06:45;;;;;;;;;;;14.10;61.90;;;;;;6243833;23;20414;-72
2024/01/18 13:09:29;;;;;;;;;;;14.00;57.40;;;;;;6245073;23;20258;-72
2024/01/18 13:11:57;;;;;;;;;;;13.90;60.80;;;;;;6245613;23;19945;-72
2024/01/18 13:14:23;;;;;;;;;;;14.40;60.30;;;;;;6245227;23;20249;-72
2024/01/18 13:16:50;;;;;;;;;;;14.50;60.40;;;;;;6245963;23;19912;-72
2024/01/18 13:19:18;;;;;;;;;;;14.50;60.10;;;;;;6245141;22;19903;-73
2024/01/18 13:21:44;;;;;;;;;;;14.60;60.00;;;;;;6244719;23;20246;-73
2024/01/18 13:24:11;;;;;;;;;;;14.70;59.50;;;;;;6245392;23;19957;-73
2024/01/18 13:26:37;;;;;;;;;;;14.70;59.60;;;;;;6245872;22;19903;-73
2024/01/18 13:29:04;;;;;;;;;;;14.80;59.60;;;;;;6245727;23;19931;-72
2024/01/18 13:31:30;;;;;;;;;;;14.80;59.30;;;;;;6245478;23;19910;-73
2024/01/18 13:33:57;;;;;;;;;;;15.00;59.00;;;;;;6245513;23;20312;-72
2024/01/18 13:36:23;;;;;;;;;;;14.90;59.00;;;;;;6245625;23;19916;-73
2024/01/18 13:38:49;;;;;;;;;;;15.10;58.80;;;;;;6245770;22;19907;-73
2024/01/18 13:41:15;;;;;;;;;;;15.10;59.10;;;;;;6245570;23;19904;-73
2024/01/18 13:43:42;;;;;;;;;;;15.20;58.50;;;;;;6245643;23;19904;-74
2024/01/18 13:46:07;;;;;;;;;;;15.10;58.80;;;;;;6245230;22;20228;-76
2024/01/18 13:48:34;;;;;;;;;;;15.40;59.00;;;;;;6245306;23;19985;-76
2024/01/18 13:51:01;;;;;;;;;;;15.00;59.00;;;;;;6245695;23;19904;-75
2024/01/18 13:53:27;;;;;;;;;;;15.00;59.60;;;;;;6245642;23;19911;-76
2024/01/18 13:55:54;;;;;;;;;;;14.90;59.70;;;;;;6245217;23;19969;-77
2024/01/18 13:58:20;;;;;;;;;;;14.90;60.00;;;;;;6245645;23;20242;-77
2024/01/18 14:00:46;;;;;;;;;;;14.70;60.20;;;;;;6245741;23;19987;-79
2024/01/18 14:03:13;;;;;;;;;;;14.60;60.60;;;;;;6245144;23;19907;-73
2024/01/18 14:05:40;;;;;;;;;;;14.60;60.80;;;;;;6245487;23;19976;-76
2024/01/18 14:08:06;;;;;;;;;;;14.50;60.90;;;;;;6245942;23;19911;-80
2024/01/18 14:10:33;;;;;;;;;;;14.50;59.00;;;;;;6245666;23;19911;-73
2024/01/18 14:12:59;;;;;;;;;;;14.40;61.80;;;;;;6245540;23;19904;-74
2024/01/18 14:15:25;;;;;;;;;;;14.40;61.60;;;;;;6245141;23;19911;-73
2024/01/18 14:17:51;;;;;;;;;;;14.40;61.60;;;;;;6245551;23;19904;-73
2024/01/18 14:20:17;;;;;;;;;;;14.50;61.80;;;;;;6245283;23;19904;-73
2024/01/18 14:22:46;;;;;;;;;;;14.60;61.60;;;;;;6245509;23;19915;-73
2024/01/18 14:25:12;;;;;;;;;;;14.70;58.10;;;;;;6245461;22;19911;-73
2024/01/18 14:27:41;;;;;;;;;;;14.70;61.00;;;;;;6245497;23;19904;-74
2024/01/18 14:30:09;;;;;;;;;;;14.70;60.90;;;;;;6244908;23;20327;-72